Buoy 41607

sailwx.info

Track history (hours):
 
Tides and Currents Weather Stations Pressure Air Temp Water Temp Dewpoint Dewpoint Depression Visibility Wind Speed Wind Dir Waves Ship Positions

Drifting buoy 41607

Last reported at 2015-Apr-28 11:00 UTC. Time now 2015-Apr-28 14:31 UTC.
Position N 28°11' W 062°41'.

Water temperature 23.0 ° C

Date/timePositionNaut miles runAvg speedWind from/ knotsBaromVisibWave heightAir tempDewpointWater temp
2015-Apr-28 11:00N 28°11' W 062°41'0 0.3 23.0
2015-Apr-28 10:00N 28°11' W 062°41'1 1.4 23.0
2015-Apr-28 09:00N 28°11' W 062°42'9 0.6 23.0
2015-Apr-27 19:00N 28°12' W 062°52'7 0.9 23.2
2015-Apr-27 11:00N 28°16' W 062°59'2 1.7 23.1
2015-Apr-27 10:00N 28°17' W 063°00'10 0.8 23.2
2015-Apr-26 22:00N 28°23' W 063°09'1 1.2 24.0
2015-Apr-26 21:00N 28°24' W 063°10'4 0.4 24.0
2015-Apr-26 09:00N 28°23' W 063°15'1 0.1 24.1
2015-Apr-26 01:00N 28°23' W 063°16'3 0.5 24.1
2015-Apr-25 19:00N 28°25' W 063°14'11 0.3 24.2
2015-Apr-24 10:00N 28°30' W 063°25'0 0.4 24.3
2015-Apr-24 09:00N 28°30' W 063°25'3 0.3 24.4
2015-Apr-24 01:00N 28°29' W 063°28'1 0.2 24.7
2015-Apr-23 20:00N 28°28' W 063°29'1 0.3 24.8
2015-Apr-23 17:00N 28°28' W 063°30'0 0.0 24.8
2015-Apr-23 16:00N 28°28' W 063°30'0 0.5 24.8
2015-Apr-23 15:00N 28°28' W 063°31'3 0.4 24.6
2015-Apr-23 08:00N 28°26' W 063°33'0 0.0 24.4
2015-Apr-23 07:00N 28°26' W 063°33'2 0.2 24.4
2015-Apr-22 22:00N 28°25' W 063°34'6 0.7 24.5
2015-Apr-22 13:00N 28°21' W 063°40'1 0.5 24.4
2015-Apr-22 11:00N 28°20' W 063°41'0 0.3 24.4
2015-Apr-22 10:00N 28°20' W 063°41'1 0.9 24.4
2015-Apr-22 09:00N 28°20' W 063°41'0 0.3 24.4
2015-Apr-22 08:00N 28°20' W 063°42'3 0.7 24.3
2015-Apr-22 04:00N 28°18' W 063°44'4 0.6 24.5
2015-Apr-21 22:00N 28°16' W 063°48'0 0.0 24.7
2015-Apr-21 21:00N 28°16' W 063°48'1 1.1 24.8
2015-Apr-21 20:00N 28°15' W 063°49'1 0.7 24.8
2015-Apr-21 19:00N 28°14' W 063°48'0 0.1 24.8
2015-Apr-21 18:00N 28°14' W 063°48'1 0.9 24.8
2015-Apr-21 17:00N 28°14' W 063°49'1 0.6 25.0
2015-Apr-21 16:00N 28°13' W 063°49'0 0.0 24.8
2015-Apr-21 15:00N 28°13' W 063°49'2 0.4 24.9
2015-Apr-21 10:00N 28°11' W 063°49'0 0.2 24.3
2015-Apr-21 08:00N 28°11' W 063°49'0 0.4 24.3
2015-Apr-21 07:00N 28°11' W 063°48'0 0.1 24.3
2015-Apr-21 04:00N 28°11' W 063°48'0 0.2 24.3
2015-Apr-21 01:00N 28°10' W 063°48'2 0.6 24.4
2015-Apr-20 22:00N 28°09' W 063°47'3 0.6 24.4
2015-Apr-20 16:00N 28°06' W 063°45'2 0.4 24.5
2015-Apr-20 10:00N 28°05' W 063°42'1 0.1 24.2
2015-Apr-19 20:00N 28°06' W 063°42'0 0.4 24.2
2015-Apr-19 19:00N 28°06' W 063°43'3 0.3 24.3
2015-Apr-19 11:00N 28°05' W 063°45'0 0.1 24.1
2015-Apr-19 10:00N 28°05' W 063°45'0 0.0 24.1
2015-Apr-19 01:00N 28°05' W 063°46'2 0.4 24.2
2015-Apr-18 19:00N 28°04' W 063°48'   24.4
Track history (hours):
 
Tides and Currents Weather Stations Pressure Air Temp Water Temp Dewpoint Dewpoint Depression Visibility Wind Speed Wind Dir Waves Ship Positions

Drifting buoy 41607

Last reported at 2015-Apr-28 11:00 UTC. Time now 2015-Apr-28 14:31 UTC.
Position N 28°11' W 062°41'.

Water temperature 23.0 ° C

Date/timePositionNaut miles runAvg speedWind from/ knotsBaromVisibWave heightAir tempDewpointWater temp
2015-Apr-28 11:00N 28°11' W 062°41'0 0.3 23.0
2015-Apr-28 10:00N 28°11' W 062°41'1 1.4 23.0
2015-Apr-28 09:00N 28°11' W 062°42'9 0.6 23.0
2015-Apr-27 19:00N 28°12' W 062°52'7 0.9 23.2
2015-Apr-27 11:00N 28°16' W 062°59'2 1.7 23.1
2015-Apr-27 10:00N 28°17' W 063°00'10 0.8 23.2
2015-Apr-26 22:00N 28°23' W 063°09'1 1.2 24.0
2015-Apr-26 21:00N 28°24' W 063°10'4 0.4 24.0
2015-Apr-26 09:00N 28°23' W 063°15'1 0.1 24.1
2015-Apr-26 01:00N 28°23' W 063°16'3 0.5 24.1
2015-Apr-25 19:00N 28°25' W 063°14'11 0.3 24.2
2015-Apr-24 10:00N 28°30' W 063°25'0 0.4 24.3
2015-Apr-24 09:00N 28°30' W 063°25'3 0.3 24.4
2015-Apr-24 01:00N 28°29' W 063°28'1 0.2 24.7
2015-Apr-23 20:00N 28°28' W 063°29'1 0.3 24.8
2015-Apr-23 17:00N 28°28' W 063°30'0 0.0 24.8
2015-Apr-23 16:00N 28°28' W 063°30'0 0.5 24.8
2015-Apr-23 15:00N 28°28' W 063°31'3 0.4 24.6
2015-Apr-23 08:00N 28°26' W 063°33'0 0.0 24.4
2015-Apr-23 07:00N 28°26' W 063°33'2 0.2 24.4
2015-Apr-22 22:00N 28°25' W 063°34'6 0.7 24.5
2015-Apr-22 13:00N 28°21' W 063°40'1 0.5 24.4
2015-Apr-22 11:00N 28°20' W 063°41'0 0.3 24.4
2015-Apr-22 10:00N 28°20' W 063°41'1 0.9 24.4
2015-Apr-22 09:00N 28°20' W 063°41'0 0.3 24.4
2015-Apr-22 08:00N 28°20' W 063°42'3 0.7 24.3
2015-Apr-22 04:00N 28°18' W 063°44'4 0.6 24.5
2015-Apr-21 22:00N 28°16' W 063°48'0 0.0 24.7
2015-Apr-21 21:00N 28°16' W 063°48'1 1.1 24.8
2015-Apr-21 20:00N 28°15' W 063°49'1 0.7 24.8
2015-Apr-21 19:00N 28°14' W 063°48'0 0.1 24.8
2015-Apr-21 18:00N 28°14' W 063°48'1 0.9 24.8
2015-Apr-21 17:00N 28°14' W 063°49'1 0.6 25.0
2015-Apr-21 16:00N 28°13' W 063°49'0 0.0 24.8
2015-Apr-21 15:00N 28°13' W 063°49'2 0.4 24.9
2015-Apr-21 10:00N 28°11' W 063°49'0 0.2 24.3
2015-Apr-21 08:00N 28°11' W 063°49'0 0.4 24.3
2015-Apr-21 07:00N 28°11' W 063°48'0 0.1 24.3
2015-Apr-21 04:00N 28°11' W 063°48'0 0.2 24.3
2015-Apr-21 01:00N 28°10' W 063°48'2 0.6 24.4
2015-Apr-20 22:00N 28°09' W 063°47'3 0.6 24.4
2015-Apr-20 16:00N 28°06' W 063°45'2 0.4 24.5
2015-Apr-20 10:00N 28°05' W 063°42'1 0.1 24.2
2015-Apr-19 20:00N 28°06' W 063°42'0 0.4 24.2
2015-Apr-19 19:00N 28°06' W 063°43'3 0.3 24.3
2015-Apr-19 11:00N 28°05' W 063°45'0 0.1 24.1
2015-Apr-19 10:00N 28°05' W 063°45'0 0.0 24.1
2015-Apr-19 01:00N 28°05' W 063°46'2 0.4 24.2
2015-Apr-18 19:00N 28°04' W 063°48'   24.4

Dump ship's entire track history